Hollis Center, Maine
Current Conditions -  °F | °C
As of 11:51 PM on Sunday 19 Oct 2014 (Local Time) from KPWM Reporting Station
Overcast Overcast  
Wind Chill: 39°   Ceiling: 6500
Heat Index: 45°   Visibility: 10mi
Dew Point: 27°   Wind: 12mph
Humidity: 49%   Direction: 270°W
Pressure: 29.89"   Gusts: NA
Location:  43.6°N, 70.59°W
Report Text: KPWM 200351Z 27010KT 10SM OVC065 07/M03 A2989 RMK AO2 SLP122 T00721028
Loading
Personal Weather Stations






























Interactive Weather Map
Tropical Storm Tracking
New forecast layout! Learn more

10-Day Weather Forecast

Advertisements
Track Severe Weather on mobile